Rough Edge, Mississippi
Current Conditions -  °F | °C
As of 1:53 AM on Thursday 25 Dec 2014 (Local Time) from KTUP Reporting Station
Overcast Overcast  
Wind Chill: 35°   Ceiling: 4000
Heat Index: 39°   Visibility: 10mi
Dew Point: 35°   Wind: 6mph
Humidity: 86%   Direction: 260°W
Pressure: 30.06"   Gusts: NA
Location:  34.1762°N, 88.9612°W
Report Text: KTUP 250753Z AUTO 26005KT 10SM OVC040 04/02 A3006 RMK AO2 SLP180 T00390017
Loading
Personal Weather Stations






























Interactive Weather Map New forecast layout! Learn more

10-Day Weather Forecast

Advertisements
Track Severe Weather on mobile